Airfield :
LOGIN :

Register | Disclaimer

   EN    FR    IT 

 










Legend :    VFR   Marginal VFR   IFR   Intensive IFR   Very Intensive IFR
Visi :
Ceiling :
>= 8 km
>= 3000ft
5 to 8 km
1000 to 3000 ft
1500m to 5 km
500 to 1000 ft
800 to 1500m
200 to 500 ft
< 800m
< 200 ft
Symbols :   Thunderstorms  Fog  Heavy snow  Heavy precipitations  Wind > 20 kt
SIGMETs :     Misc.  Thunderstorms  Icing  Turbulence  Mountain Waves  Volcanic Ashes






- Airport Elevation : 306 ft
- IATA code : EMA


EGNX - Nottingham East Midlands

CURRENT METAR :
  • 071520Z 26012KT 9999 FEW012 14/12 Q1013

EXPIRED METARs :
  • 071450Z 26013KT 9999 FEW034 14/12 Q1013
  • 071420Z 26016KT 9999 -RA FEW014 BKN047 12/11 Q1013 RERA
  • 071350Z 29016KT 6000 RA FEW007 BKN019 BKN040 12/11 Q1014 RERA
  • 071320Z 24016KT 8000 -RA SCT022 BKN033 15/12 Q1013
  • 071250Z 23019KT 7000 -RA FEW015 BKN022 BKN036 16/11 Q1013

TAF AMD TAF EGNX
Valid from the 07 at 14:00 until the 08 at 12:00 UTC


071410Z 0714/0812 29015KT 9999 SCT020
TEMPO 0714/0716 24025G35KT 7000 RA SHRA
PROB30
TEMPO 0714/0716 3000 +RA +SHRA BKN014
PROB30
TEMPO 0716/0721 30016G26KT
PROB30
TEMPO 0716/0719 7000 SHRA
ATIS : +44 1332 852 852 (ext 3201)



MET'MAP, your aeronautical weather chart ! - Copyright ORBIFLY December 2007 - Disclaimer

ORBIFLY MET'MAP TEAM :

Programming & Development : Alexandra Zaïnal
Original concept : Baudouin d'Aumeries
Technical & hardware support : Manuel Goepfert
Assistance : Marc-Olivier Méhu




SOURCES & CREDITS :

   NOAA